sensor_id;sensor_type;location;lat;lon;timestamp;P1;durP1;ratioP1;P2;durP2;ratioP2
55076;SDS011;40971;44.702;11.030;2022-10-18T00:02:25;41.97;;;21.13;;
55076;SDS011;40971;44.702;11.030;2022-10-18T00:04:50;45.10;;;21.52;;
55076;SDS011;40971;44.702;11.030;2022-10-18T00:07:15;52.10;;;23.50;;
55076;SDS011;40971;44.702;11.030;2022-10-18T00:09:41;56.17;;;24.10;;
55076;SDS011;40971;44.702;11.030;2022-10-18T00:12:06;49.53;;;22.42;;
55076;SDS011;40971;44.702;11.030;2022-10-18T00:14:32;50.53;;;24.73;;
55076;SDS011;40971;44.702;11.030;2022-10-18T00:16:57;54.70;;;26.30;;
55076;SDS011;40971;44.702;11.030;2022-10-18T00:19:23;64.32;;;28.80;;
55076;SDS011;40971;44.702;11.030;2022-10-18T00:21:53;51.88;;;25.27;;
55076;SDS011;40971;44.702;11.030;2022-10-18T00:24:19;56.70;;;26.65;;
55076;SDS011;40971;44.702;11.030;2022-10-18T00:26:44;62.75;;;26.55;;
55076;SDS011;40971;44.702;11.030;2022-10-18T00:29:11;62.60;;;25.80;;
55076;SDS011;40971;44.702;11.030;2022-10-18T00:31:38;59.28;;;26.60;;
55076;SDS011;40971;44.702;11.030;2022-10-18T00:34:05;64.97;;;29.73;;
55076;SDS011;40971;44.702;11.030;2022-10-18T00:36:38;61.63;;;29.05;;
55076;SDS011;40971;44.702;11.030;2022-10-18T00:39:04;69.15;;;30.60;;
55076;SDS011;40971;44.702;11.030;2022-10-18T00:41:32;72.68;;;32.08;;
55076;SDS011;40971;44.702;11.030;2022-10-18T00:44:06;72.45;;;29.40;;
55076;SDS011;40971;44.702;11.030;2022-10-18T00:46:35;68.93;;;30.20;;
55076;SDS011;40971;44.702;11.030;2022-10-18T00:52:05;70.72;;;29.17;;
55076;SDS011;40971;44.702;11.030;2022-10-18T00:54:34;69.50;;;30.85;;
55076;SDS011;40971;44.702;11.030;2022-10-18T00:57:02;62.45;;;29.20;;
55076;SDS011;40971;44.702;11.030;2022-10-18T00:59:28;58.83;;;26.52;;
55076;SDS011;40971;44.702;11.030;2022-10-18T01:01:54;60.30;;;28.25;;
55076;SDS011;40971;44.702;11.030;2022-10-18T01:04:22;81.13;;;32.88;;
55076;SDS011;40971;44.702;11.030;2022-10-18T01:09:27;63.67;;;29.35;;
55076;SDS011;40971;44.702;11.030;2022-10-18T01:12:24;61.63;;;25.98;;
55076;SDS011;40971;44.702;11.030;2022-10-18T01:20:50;59.13;;;26.55;;
55076;SDS011;40971;44.702;11.030;2022-10-18T01:28:59;52.25;;;23.20;;
55076;SDS011;40971;44.702;11.030;2022-10-18T01:31:38;49.30;;;22.65;;
55076;SDS011;40971;44.702;11.030;2022-10-18T01:34:21;49.33;;;22.85;;
55076;SDS011;40971;44.702;11.030;2022-10-18T01:36:50;48.97;;;22.75;;
55076;SDS011;40971;44.702;11.030;2022-10-18T01:39:31;83.93;;;32.22;;
55076;SDS011;40971;44.702;11.030;2022-10-18T01:42:01;71.90;;;30.15;;
55076;SDS011;40971;44.702;11.030;2022-10-18T01:44:30;81.93;;;35.58;;
55076;SDS011;40971;44.702;11.030;2022-10-18T01:47:01;85.65;;;35.30;;
55076;SDS011;40971;44.702;11.030;2022-10-18T01:49:30;104.55;;;41.05;;
55076;SDS011;40971;44.702;11.030;2022-10-18T01:51:57;89.35;;;36.47;;
55076;SDS011;40971;44.702;11.030;2022-10-18T01:54:33;92.20;;;37.10;;
55076;SDS011;40971;44.702;11.030;2022-10-18T01:57:05;70.32;;;29.30;;
55076;SDS011;40971;44.702;11.030;2022-10-18T02:10:46;73.55;;;33.40;;
55076;SDS011;40971;44.702;11.030;2022-10-18T02:13:15;80.28;;;31.92;;
55076;SDS011;40971;44.702;11.030;2022-10-18T02:15:45;88.03;;;32.25;;
55076;SDS011;40971;44.702;11.030;2022-10-18T02:18:22;74.28;;;31.75;;
55076;SDS011;40971;44.702;11.030;2022-10-18T02:20:52;84.60;;;36.25;;
55076;SDS011;40971;44.702;11.030;2022-10-18T02:23:20;70.15;;;31.98;;
55076;SDS011;40971;44.702;11.030;2022-10-18T02:25:49;72.65;;;30.55;;
55076;SDS011;40971;44.702;11.030;2022-10-18T02:28:15;63.70;;;27.80;;
55076;SDS011;40971;44.702;11.030;2022-10-18T02:30:47;60.70;;;26.63;;
55076;SDS011;40971;44.702;11.030;2022-10-18T02:33:34;63.00;;;29.15;;
55076;SDS011;40971;44.702;11.030;2022-10-18T02:38:48;67.78;;;31.13;;
55076;SDS011;40971;44.702;11.030;2022-10-18T02:41:25;67.40;;;26.73;;
55076;SDS011;40971;44.702;11.030;2022-10-18T02:43:52;62.97;;;25.33;;
55076;SDS011;40971;44.702;11.030;2022-10-18T02:46:22;68.15;;;27.00;;
55076;SDS011;40971;44.702;11.030;2022-10-18T02:48:48;87.07;;;34.28;;
55076;SDS011;40971;44.702;11.030;2022-10-18T02:51:14;83.70;;;36.00;;
55076;SDS011;40971;44.702;11.030;2022-10-18T02:53:39;76.78;;;31.30;;
55076;SDS011;40971;44.702;11.030;2022-10-18T02:56:05;70.68;;;28.80;;
55076;SDS011;40971;44.702;11.030;2022-10-18T02:58:33;55.70;;;25.10;;
55076;SDS011;40971;44.702;11.030;2022-10-18T03:00:58;76.63;;;32.55;;
55076;SDS011;40971;44.702;11.030;2022-10-18T03:03:24;79.05;;;32.83;;
55076;SDS011;40971;44.702;11.030;2022-10-18T03:05:50;83.97;;;33.67;;
55076;SDS011;40971;44.702;11.030;2022-10-18T03:08:16;86.07;;;33.25;;
55076;SDS011;40971;44.702;11.030;2022-10-18T03:10:45;66.15;;;28.35;;
55076;SDS011;40971;44.702;11.030;2022-10-18T03:13:16;52.13;;;23.13;;
55076;SDS011;40971;44.702;11.030;2022-10-18T03:15:42;65.30;;;27.95;;
55076;SDS011;40971;44.702;11.030;2022-10-18T03:18:07;61.85;;;26.95;;
55076;SDS011;40971;44.702;11.030;2022-10-18T03:20:33;69.18;;;29.10;;
55076;SDS011;40971;44.702;11.030;2022-10-18T03:22:58;73.53;;;28.35;;
55076;SDS011;40971;44.702;11.030;2022-10-18T03:25:24;66.20;;;28.58;;
55076;SDS011;40971;44.702;11.030;2022-10-18T03:27:49;77.72;;;30.85;;
55076;SDS011;40971;44.702;11.030;2022-10-18T03:30:15;67.43;;;30.10;;
55076;SDS011;40971;44.702;11.030;2022-10-18T03:32:40;74.18;;;29.83;;
55076;SDS011;40971;44.702;11.030;2022-10-18T03:35:06;75.78;;;31.02;;
55076;SDS011;40971;44.702;11.030;2022-10-18T03:37:33;74.20;;;28.92;;
55076;SDS011;40971;44.702;11.030;2022-10-18T03:39:59;87.05;;;34.40;;
55076;SDS011;40971;44.702;11.030;2022-10-18T03:42:24;80.57;;;33.03;;
55076;SDS011;40971;44.702;11.030;2022-10-18T03:44:50;85.40;;;34.63;;
55076;SDS011;40971;44.702;11.030;2022-10-18T03:47:15;78.88;;;30.02;;
55076;SDS011;40971;44.702;11.030;2022-10-18T03:49:41;80.28;;;31.08;;
55076;SDS011;40971;44.702;11.030;2022-10-18T03:52:06;68.65;;;28.48;;
55076;SDS011;40971;44.702;11.030;2022-10-18T03:54:31;76.30;;;31.92;;
55076;SDS011;40971;44.702;11.030;2022-10-18T03:56:57;67.82;;;29.67;;
55076;SDS011;40971;44.702;11.030;2022-10-18T03:59:22;80.38;;;31.55;;
55076;SDS011;40971;44.702;11.030;2022-10-18T04:01:48;79.25;;;31.17;;
55076;SDS011;40971;44.702;11.030;2022-10-18T04:04:14;88.80;;;34.15;;
55076;SDS011;40971;44.702;11.030;2022-10-18T04:06:39;93.50;;;33.10;;
55076;SDS011;40971;44.702;11.030;2022-10-18T04:09:06;85.28;;;35.53;;
55076;SDS011;40971;44.702;11.030;2022-10-18T04:11:32;86.78;;;35.65;;
55076;SDS011;40971;44.702;11.030;2022-10-18T04:14:03;94.38;;;34.80;;
55076;SDS011;40971;44.702;11.030;2022-10-18T04:16:28;83.63;;;34.58;;
55076;SDS011;40971;44.702;11.030;2022-10-18T04:18:54;78.72;;;33.85;;
55076;SDS011;40971;44.702;11.030;2022-10-18T04:21:19;91.57;;;33.63;;
55076;SDS011;40971;44.702;11.030;2022-10-18T04:23:48;84.60;;;35.83;;
55076;SDS011;40971;44.702;11.030;2022-10-18T04:26:15;84.28;;;34.95;;
55076;SDS011;40971;44.702;11.030;2022-10-18T04:28:41;83.63;;;36.45;;
55076;SDS011;40971;44.702;11.030;2022-10-18T04:31:07;91.93;;;35.47;;
55076;SDS011;40971;44.702;11.030;2022-10-18T04:33:33;88.60;;;36.30;;
55076;SDS011;40971;44.702;11.030;2022-10-18T04:35:59;83.38;;;35.15;;
55076;SDS011;40971;44.702;11.030;2022-10-18T04:38:24;105.72;;;37.20;;
55076;SDS011;40971;44.702;11.030;2022-10-18T04:40:49;104.72;;;38.40;;
55076;SDS011;40971;44.702;11.030;2022-10-18T04:43:16;94.97;;;37.97;;
55076;SDS011;40971;44.702;11.030;2022-10-18T04:45:50;90.50;;;36.42;;
55076;SDS011;40971;44.702;11.030;2022-10-18T04:48:16;89.50;;;34.60;;
55076;SDS011;40971;44.702;11.030;2022-10-18T04:50:42;90.13;;;35.00;;
55076;SDS011;40971;44.702;11.030;2022-10-18T04:53:07;64.43;;;27.65;;
55076;SDS011;40971;44.702;11.030;2022-10-18T04:55:33;77.22;;;29.73;;
55076;SDS011;40971;44.702;11.030;2022-10-18T04:57:58;81.95;;;33.30;;
55076;SDS011;40971;44.702;11.030;2022-10-18T05:00:24;84.47;;;35.78;;
55076;SDS011;40971;44.702;11.030;2022-10-18T05:02:54;86.85;;;36.10;;
55076;SDS011;40971;44.702;11.030;2022-10-18T05:05:20;111.05;;;37.25;;
55076;SDS011;40971;44.702;11.030;2022-10-18T05:07:49;120.78;;;37.22;;
55076;SDS011;40971;44.702;11.030;2022-10-18T05:10:15;106.57;;;35.78;;
55076;SDS011;40971;44.702;11.030;2022-10-18T05:12:43;86.07;;;30.65;;
55076;SDS011;40971;44.702;11.030;2022-10-18T05:15:10;137.38;;;28.90;;
55076;SDS011;40971;44.702;11.030;2022-10-18T05:17:35;95.55;;;29.77;;
55076;SDS011;40971;44.702;11.030;2022-10-18T05:20:01;72.22;;;30.35;;
55076;SDS011;40971;44.702;11.030;2022-10-18T05:22:26;84.85;;;30.30;;
55076;SDS011;40971;44.702;11.030;2022-10-18T05:24:52;94.32;;;32.80;;
55076;SDS011;40971;44.702;11.030;2022-10-18T05:27:17;123.40;;;30.63;;
55076;SDS011;40971;44.702;11.030;2022-10-18T05:29:43;82.30;;;29.67;;
55076;SDS011;40971;44.702;11.030;2022-10-18T05:32:08;75.15;;;27.75;;
55076;SDS011;40971;44.702;11.030;2022-10-18T05:34:34;75.30;;;28.02;;
55076;SDS011;40971;44.702;11.030;2022-10-18T05:36:59;86.93;;;28.00;;
55076;SDS011;40971;44.702;11.030;2022-10-18T05:39:24;106.85;;;28.55;;
55076;SDS011;40971;44.702;11.030;2022-10-18T05:41:50;59.78;;;26.30;;
55076;SDS011;40971;44.702;11.030;2022-10-18T05:44:15;66.53;;;28.52;;
55076;SDS011;40971;44.702;11.030;2022-10-18T05:46:41;75.22;;;30.30;;
55076;SDS011;40971;44.702;11.030;2022-10-18T05:49:06;75.40;;;27.92;;
55076;SDS011;40971;44.702;11.030;2022-10-18T05:51:33;83.35;;;28.80;;
55076;SDS011;40971;44.702;11.030;2022-10-18T05:53:58;86.95;;;30.15;;
55076;SDS011;40971;44.702;11.030;2022-10-18T05:56:24;90.97;;;33.38;;
55076;SDS011;40971;44.702;11.030;2022-10-18T05:58:50;77.88;;;30.40;;
55076;SDS011;40971;44.702;11.030;2022-10-18T06:01:16;102.20;;;33.22;;
55076;SDS011;40971;44.702;11.030;2022-10-18T06:03:42;82.20;;;31.63;;
55076;SDS011;40971;44.702;11.030;2022-10-18T06:06:08;79.05;;;31.08;;
55076;SDS011;40971;44.702;11.030;2022-10-18T06:08:36;95.30;;;32.78;;
55076;SDS011;40971;44.702;11.030;2022-10-18T06:11:06;96.45;;;33.45;;
55076;SDS011;40971;44.702;11.030;2022-10-18T06:13:32;82.22;;;31.52;;
55076;SDS011;40971;44.702;11.030;2022-10-18T06:15:57;74.93;;;32.42;;
55076;SDS011;40971;44.702;11.030;2022-10-18T06:18:23;101.85;;;32.22;;
55076;SDS011;40971;44.702;11.030;2022-10-18T06:20:48;75.22;;;30.83;;
55076;SDS011;40971;44.702;11.030;2022-10-18T06:23:14;74.15;;;30.60;;
55076;SDS011;40971;44.702;11.030;2022-10-18T06:25:39;91.45;;;32.30;;
55076;SDS011;40971;44.702;11.030;2022-10-18T06:28:05;78.30;;;29.77;;
55076;SDS011;40971;44.702;11.030;2022-10-18T06:30:30;81.85;;;30.00;;
55076;SDS011;40971;44.702;11.030;2022-10-18T06:32:59;65.75;;;30.77;;
55076;SDS011;40971;44.702;11.030;2022-10-18T06:35:25;91.93;;;31.75;;
55076;SDS011;40971;44.702;11.030;2022-10-18T06:37:52;72.55;;;31.83;;
55076;SDS011;40971;44.702;11.030;2022-10-18T06:40:17;79.47;;;32.42;;
55076;SDS011;40971;44.702;11.030;2022-10-18T06:42:43;77.47;;;34.70;;
55076;SDS011;40971;44.702;11.030;2022-10-18T06:45:10;91.30;;;35.20;;
55076;SDS011;40971;44.702;11.030;2022-10-18T06:47:35;83.07;;;34.33;;
55076;SDS011;40971;44.702;11.030;2022-10-18T06:50:01;90.18;;;36.03;;
55076;SDS011;40971;44.702;11.030;2022-10-18T06:52:26;83.93;;;36.47;;
55076;SDS011;40971;44.702;11.030;2022-10-18T06:54:51;81.63;;;34.95;;
55076;SDS011;40971;44.702;11.030;2022-10-18T06:57:19;83.75;;;35.28;;
55076;SDS011;40971;44.702;11.030;2022-10-18T06:59:45;72.22;;;33.20;;
55076;SDS011;40971;44.702;11.030;2022-10-18T07:02:13;77.75;;;35.00;;
55076;SDS011;40971;44.702;11.030;2022-10-18T07:04:41;72.55;;;31.80;;
55076;SDS011;40971;44.702;11.030;2022-10-18T07:07:07;75.40;;;31.42;;
55076;SDS011;40971;44.702;11.030;2022-10-18T07:09:32;76.30;;;31.05;;
55076;SDS011;40971;44.702;11.030;2022-10-18T07:11:58;73.10;;;33.17;;
55076;SDS011;40971;44.702;11.030;2022-10-18T07:14:23;79.07;;;33.65;;
55076;SDS011;40971;44.702;11.030;2022-10-18T07:16:49;79.90;;;33.40;;
55076;SDS011;40971;44.702;11.030;2022-10-18T07:19:14;68.85;;;31.88;;
55076;SDS011;40971;44.702;11.030;2022-10-18T07:21:40;71.07;;;32.83;;
55076;SDS011;40971;44.702;11.030;2022-10-18T07:24:05;70.32;;;33.83;;
55076;SDS011;40971;44.702;11.030;2022-10-18T07:26:32;69.05;;;32.83;;
55076;SDS011;40971;44.702;11.030;2022-10-18T07:29:05;83.40;;;33.75;;
55076;SDS011;40971;44.702;11.030;2022-10-18T07:31:33;76.50;;;32.55;;
55076;SDS011;40971;44.702;11.030;2022-10-18T07:33:59;94.18;;;33.78;;
55076;SDS011;40971;44.702;11.030;2022-10-18T07:36:24;77.20;;;32.25;;
55076;SDS011;40971;44.702;11.030;2022-10-18T07:38:50;67.07;;;31.70;;
55076;SDS011;40971;44.702;11.030;2022-10-18T07:41:16;68.93;;;34.08;;
55076;SDS011;40971;44.702;11.030;2022-10-18T07:43:52;65.90;;;32.05;;
55076;SDS011;40971;44.702;11.030;2022-10-18T07:46:18;59.05;;;30.67;;
55076;SDS011;40971;44.702;11.030;2022-10-18T07:48:45;67.05;;;29.88;;
55076;SDS011;40971;44.702;11.030;2022-10-18T07:51:10;59.53;;;29.90;;
55076;SDS011;40971;44.702;11.030;2022-10-18T07:53:36;65.38;;;29.90;;
55076;SDS011;40971;44.702;11.030;2022-10-18T07:56:06;61.58;;;30.48;;
55076;SDS011;40971;44.702;11.030;2022-10-18T07:58:35;60.45;;;28.98;;
55076;SDS011;40971;44.702;11.030;2022-10-18T08:01:02;58.30;;;29.63;;
55076;SDS011;40971;44.702;11.030;2022-10-18T08:03:28;69.68;;;29.20;;
55076;SDS011;40971;44.702;11.030;2022-10-18T08:05:55;59.03;;;30.08;;
55076;SDS011;40971;44.702;11.030;2022-10-18T08:08:21;63.72;;;29.38;;
55076;SDS011;40971;44.702;11.030;2022-10-18T08:10:51;59.50;;;30.38;;
55076;SDS011;40971;44.702;11.030;2022-10-18T08:13:16;62.60;;;30.98;;
55076;SDS011;40971;44.702;11.030;2022-10-18T08:15:42;69.03;;;33.17;;
55076;SDS011;40971;44.702;11.030;2022-10-18T08:18:08;69.75;;;33.17;;
55076;SDS011;40971;44.702;11.030;2022-10-18T08:20:34;74.47;;;33.47;;
55076;SDS011;40971;44.702;11.030;2022-10-18T08:23:00;64.03;;;31.15;;
55076;SDS011;40971;44.702;11.030;2022-10-18T08:25:27;71.90;;;34.00;;
55076;SDS011;40971;44.702;11.030;2022-10-18T08:27:53;66.57;;;32.08;;
55076;SDS011;40971;44.702;11.030;2022-10-18T08:30:18;78.35;;;34.35;;
55076;SDS011;40971;44.702;11.030;2022-10-18T08:32:44;78.80;;;33.88;;
55076;SDS011;40971;44.702;11.030;2022-10-18T08:35:09;69.00;;;32.20;;
55076;SDS011;40971;44.702;11.030;2022-10-18T08:37:34;77.07;;;33.13;;
55076;SDS011;40971;44.702;11.030;2022-10-18T08:40:00;67.32;;;32.30;;
55076;SDS011;40971;44.702;11.030;2022-10-18T08:45:09;71.03;;;34.55;;
55076;SDS011;40971;44.702;11.030;2022-10-18T08:47:37;68.18;;;35.58;;
55076;SDS011;40971;44.702;11.030;2022-10-18T08:50:06;73.22;;;34.42;;
55076;SDS011;40971;44.702;11.030;2022-10-18T08:55:47;66.05;;;33.67;;
55076;SDS011;40971;44.702;11.030;2022-10-18T08:58:18;77.65;;;36.78;;
55076;SDS011;40971;44.702;11.030;2022-10-18T09:13:05;72.60;;;33.60;;
55076;SDS011;40971;44.702;11.030;2022-10-18T09:15:44;71.53;;;33.53;;
55076;SDS011;40971;44.702;11.030;2022-10-18T09:20:52;78.13;;;35.40;;
55076;SDS011;40971;44.702;11.030;2022-10-18T09:25:56;71.05;;;35.05;;
55076;SDS011;40971;44.702;11.030;2022-10-18T09:31:14;77.22;;;34.78;;
55076;SDS011;40971;44.702;11.030;2022-10-18T09:36:17;81.60;;;36.72;;
55076;SDS011;40971;44.702;11.030;2022-10-18T09:38:58;76.07;;;34.70;;
55076;SDS011;40971;44.702;11.030;2022-10-18T09:41:50;88.88;;;37.30;;
55076;SDS011;40971;44.702;11.030;2022-10-18T09:44:18;76.57;;;38.13;;
55076;SDS011;40971;44.702;11.030;2022-10-18T09:46:52;89.55;;;37.97;;
55076;SDS011;40971;44.702;11.030;2022-10-18T09:49:28;78.85;;;37.97;;
55076;SDS011;40971;44.702;11.030;2022-10-18T09:52:01;106.07;;;39.13;;
55076;SDS011;40971;44.702;11.030;2022-10-18T09:54:48;87.70;;;38.28;;
55076;SDS011;40971;44.702;11.030;2022-10-18T09:57:38;87.68;;;38.30;;
55076;SDS011;40971;44.702;11.030;2022-10-18T10:00:16;75.47;;;37.90;;
55076;SDS011;40971;44.702;11.030;2022-10-18T10:02:57;89.45;;;37.33;;
55076;SDS011;40971;44.702;11.030;2022-10-18T10:05:25;79.97;;;35.95;;
55076;SDS011;40971;44.702;11.030;2022-10-18T10:07:51;83.13;;;37.13;;
55076;SDS011;40971;44.702;11.030;2022-10-18T10:10:23;76.95;;;37.28;;
55076;SDS011;40971;44.702;11.030;2022-10-18T10:15:38;80.47;;;37.55;;
55076;SDS011;40971;44.702;11.030;2022-10-18T10:18:21;88.05;;;38.38;;
55076;SDS011;40971;44.702;11.030;2022-10-18T10:20:52;75.07;;;36.55;;
55076;SDS011;40971;44.702;11.030;2022-10-18T10:23:28;79.32;;;36.97;;
55076;SDS011;40971;44.702;11.030;2022-10-18T10:25:58;83.35;;;36.33;;
55076;SDS011;40971;44.702;11.030;2022-10-18T10:28:27;83.45;;;36.97;;
55076;SDS011;40971;44.702;11.030;2022-10-18T10:34:34;84.65;;;38.45;;
55076;SDS011;40971;44.702;11.030;2022-10-18T10:36:45;71.57;;;35.95;;
55076;SDS011;40971;44.702;11.030;2022-10-18T10:39:18;74.75;;;36.33;;
55076;SDS011;40971;44.702;11.030;2022-10-18T10:41:48;72.97;;;36.25;;
55076;SDS011;40971;44.702;11.030;2022-10-18T10:44:20;92.53;;;37.20;;
55076;SDS011;40971;44.702;11.030;2022-10-18T10:46:48;78.28;;;37.33;;
55076;SDS011;40971;44.702;11.030;2022-10-18T10:49:17;75.32;;;35.67;;
55076;SDS011;40971;44.702;11.030;2022-10-18T10:52:03;76.07;;;35.47;;
55076;SDS011;40971;44.702;11.030;2022-10-18T10:54:29;77.80;;;38.38;;
55076;SDS011;40971;44.702;11.030;2022-10-18T10:57:01;71.32;;;35.50;;
55076;SDS011;40971;44.702;11.030;2022-10-18T10:59:44;80.60;;;35.45;;
55076;SDS011;40971;44.702;11.030;2022-10-18T11:04:39;75.65;;;36.45;;
55076;SDS011;40971;44.702;11.030;2022-10-18T11:15:28;74.30;;;35.35;;
55076;SDS011;40971;44.702;11.030;2022-10-18T11:20:39;78.22;;;37.35;;
55076;SDS011;40971;44.702;11.030;2022-10-18T11:23:12;82.20;;;37.35;;
55076;SDS011;40971;44.702;11.030;2022-10-18T11:26:23;72.70;;;35.22;;
55076;SDS011;40971;44.702;11.030;2022-10-18T11:28:38;74.13;;;36.78;;
55076;SDS011;40971;44.702;11.030;2022-10-18T11:31:23;72.88;;;37.22;;
55076;SDS011;40971;44.702;11.030;2022-10-18T11:36:53;69.38;;;35.17;;
55076;SDS011;40971;44.702;11.030;2022-10-18T11:41:54;72.03;;;35.70;;
55076;SDS011;40971;44.702;11.030;2022-10-18T11:44:32;68.05;;;33.35;;
55076;SDS011;40971;44.702;11.030;2022-10-18T12:06:20;62.65;;;31.80;;
55076;SDS011;40971;44.702;11.030;2022-10-18T12:08:56;67.93;;;30.67;;
55076;SDS011;40971;44.702;11.030;2022-10-18T12:11:27;61.25;;;30.38;;
55076;SDS011;40971;44.702;11.030;2022-10-18T12:14:01;68.95;;;30.95;;
55076;SDS011;40971;44.702;11.030;2022-10-18T12:16:31;54.88;;;27.77;;
55076;SDS011;40971;44.702;11.030;2022-10-18T12:19:03;58.13;;;26.65;;
55076;SDS011;40971;44.702;11.030;2022-10-18T12:21:35;66.25;;;29.33;;
55076;SDS011;40971;44.702;11.030;2022-10-18T12:24:05;52.75;;;25.48;;
55076;SDS011;40971;44.702;11.030;2022-10-18T12:26:35;50.17;;;23.23;;
55076;SDS011;40971;44.702;11.030;2022-10-18T12:31:58;60.13;;;27.02;;
55076;SDS011;40971;44.702;11.030;2022-10-18T12:34:29;56.85;;;27.92;;
55076;SDS011;40971;44.702;11.030;2022-10-18T12:37:12;62.55;;;26.40;;
55076;SDS011;40971;44.702;11.030;2022-10-18T12:42:23;60.90;;;27.60;;
55076;SDS011;40971;44.702;11.030;2022-10-18T12:47:30;59.05;;;29.20;;
55076;SDS011;40971;44.702;11.030;2022-10-18T12:49:58;43.22;;;23.35;;
55076;SDS011;40971;44.702;11.030;2022-10-18T12:52:31;44.55;;;22.30;;
55076;SDS011;40971;44.702;11.030;2022-10-18T13:17:01;44.42;;;19.73;;
55076;SDS011;40971;44.702;11.030;2022-10-18T13:20:14;40.05;;;21.52;;
55076;SDS011;40971;44.702;11.030;2022-10-18T13:34:43;47.90;;;23.13;;
55076;SDS011;40971;44.702;11.030;2022-10-18T13:39:35;41.75;;;19.40;;
55076;SDS011;40971;44.702;11.030;2022-10-18T13:44:40;32.58;;;17.85;;
55076;SDS011;40971;44.702;11.030;2022-10-18T13:50:06;41.83;;;19.92;;
55076;SDS011;40971;44.702;11.030;2022-10-18T13:56:06;34.60;;;18.95;;
55076;SDS011;40971;44.702;11.030;2022-10-18T14:01:38;63.90;;;21.50;;
55076;SDS011;40971;44.702;11.030;2022-10-18T14:07:07;43.10;;;21.15;;
55076;SDS011;40971;44.702;11.030;2022-10-18T14:09:46;45.30;;;21.52;;
55076;SDS011;40971;44.702;11.030;2022-10-18T14:12:25;44.80;;;20.40;;
55076;SDS011;40971;44.702;11.030;2022-10-18T14:15:16;44.30;;;21.30;;
55076;SDS011;40971;44.702;11.030;2022-10-18T14:23:20;41.95;;;20.63;;
55076;SDS011;40971;44.702;11.030;2022-10-18T14:26:07;51.55;;;21.23;;
55076;SDS011;40971;44.702;11.030;2022-10-18T14:28:45;45.90;;;21.67;;
55076;SDS011;40971;44.702;11.030;2022-10-18T14:31:40;49.28;;;22.05;;
55076;SDS011;40971;44.702;11.030;2022-10-18T14:34:15;45.72;;;23.20;;
55076;SDS011;40971;44.702;11.030;2022-10-18T14:36:43;54.15;;;22.55;;
55076;SDS011;40971;44.702;11.030;2022-10-18T14:39:17;52.80;;;22.17;;
55076;SDS011;40971;44.702;11.030;2022-10-18T14:41:53;51.25;;;23.95;;
55076;SDS011;40971;44.702;11.030;2022-10-18T14:47:28;52.13;;;22.92;;
55076;SDS011;40971;44.702;11.030;2022-10-18T14:49:49;48.00;;;22.10;;
55076;SDS011;40971;44.702;11.030;2022-10-18T14:52:26;41.10;;;19.38;;
55076;SDS011;40971;44.702;11.030;2022-10-18T14:54:56;43.60;;;19.70;;
55076;SDS011;40971;44.702;11.030;2022-10-18T14:57:28;45.88;;;22.42;;
55076;SDS011;40971;44.702;11.030;2022-10-18T15:00:03;46.88;;;21.40;;
55076;SDS011;40971;44.702;11.030;2022-10-18T15:02:42;36.63;;;18.98;;
55076;SDS011;40971;44.702;11.030;2022-10-18T15:05:09;44.08;;;20.60;;
55076;SDS011;40971;44.702;11.030;2022-10-18T15:07:46;35.97;;;20.25;;
55076;SDS011;40971;44.702;11.030;2022-10-18T15:13:03;45.25;;;21.95;;
55076;SDS011;40971;44.702;11.030;2022-10-18T15:15:31;44.58;;;22.02;;
55076;SDS011;40971;44.702;11.030;2022-10-18T15:17:59;43.10;;;19.50;;
55076;SDS011;40971;44.702;11.030;2022-10-18T15:20:30;48.67;;;21.88;;
55076;SDS011;40971;44.702;11.030;2022-10-18T15:26:03;48.00;;;22.60;;
55076;SDS011;40971;44.702;11.030;2022-10-18T15:28:36;44.65;;;21.85;;
55076;SDS011;40971;44.702;11.030;2022-10-18T15:31:25;39.80;;;20.00;;
55076;SDS011;40971;44.702;11.030;2022-10-18T15:34:09;43.37;;;21.27;;
55076;SDS011;40971;44.702;11.030;2022-10-18T15:36:50;53.00;;;21.02;;
55076;SDS011;40971;44.702;11.030;2022-10-18T15:41:58;44.90;;;20.60;;
55076;SDS011;40971;44.702;11.030;2022-10-18T15:44:34;43.22;;;20.83;;
55076;SDS011;40971;44.702;11.030;2022-10-18T15:54:36;45.05;;;19.85;;
55076;SDS011;40971;44.702;11.030;2022-10-18T15:57:05;41.47;;;20.75;;
55076;SDS011;40971;44.702;11.030;2022-10-18T15:59:33;39.50;;;18.88;;
55076;SDS011;40971;44.702;11.030;2022-10-18T16:01:58;36.15;;;18.50;;
55076;SDS011;40971;44.702;11.030;2022-10-18T16:04:25;33.03;;;18.58;;
55076;SDS011;40971;44.702;11.030;2022-10-18T16:06:52;30.90;;;16.17;;
55076;SDS011;40971;44.702;11.030;2022-10-18T16:09:20;40.40;;;18.92;;
55076;SDS011;40971;44.702;11.030;2022-10-18T16:11:46;36.80;;;18.23;;
55076;SDS011;40971;44.702;11.030;2022-10-18T16:14:15;72.10;;;21.55;;
55076;SDS011;40971;44.702;11.030;2022-10-18T16:16:49;77.40;;;22.00;;
55076;SDS011;40971;44.702;11.030;2022-10-18T16:19:20;49.63;;;21.58;;
55076;SDS011;40971;44.702;11.030;2022-10-18T16:21:47;51.55;;;21.75;;
55076;SDS011;40971;44.702;11.030;2022-10-18T16:24:13;43.78;;;22.30;;
55076;SDS011;40971;44.702;11.030;2022-10-18T16:29:24;42.65;;;19.50;;
55076;SDS011;40971;44.702;11.030;2022-10-18T16:31:52;37.70;;;17.92;;
55076;SDS011;40971;44.702;11.030;2022-10-18T16:34:21;38.38;;;18.67;;
55076;SDS011;40971;44.702;11.030;2022-10-18T16:36:47;40.65;;;20.27;;
55076;SDS011;40971;44.702;11.030;2022-10-18T16:39:13;46.17;;;21.83;;
55076;SDS011;40971;44.702;11.030;2022-10-18T16:41:41;42.45;;;20.23;;
55076;SDS011;40971;44.702;11.030;2022-10-18T16:44:06;28.35;;;15.15;;
55076;SDS011;40971;44.702;11.030;2022-10-18T16:46:32;38.35;;;17.77;;
55076;SDS011;40971;44.702;11.030;2022-10-18T16:49:03;33.78;;;16.92;;
55076;SDS011;40971;44.702;11.030;2022-10-18T16:51:29;30.42;;;16.40;;
55076;SDS011;40971;44.702;11.030;2022-10-18T16:53:55;37.72;;;16.10;;
55076;SDS011;40971;44.702;11.030;2022-10-18T16:56:22;31.40;;;15.02;;
55076;SDS011;40971;44.702;11.030;2022-10-18T16:58:53;30.85;;;15.23;;
55076;SDS011;40971;44.702;11.030;2022-10-18T17:01:19;42.45;;;19.75;;
55076;SDS011;40971;44.702;11.030;2022-10-18T17:03:46;49.63;;;22.77;;
55076;SDS011;40971;44.702;11.030;2022-10-18T17:06:16;59.40;;;23.73;;
55076;SDS011;40971;44.702;11.030;2022-10-18T17:08:41;47.50;;;22.23;;
55076;SDS011;40971;44.702;11.030;2022-10-18T17:11:08;57.55;;;24.80;;
55076;SDS011;40971;44.702;11.030;2022-10-18T17:13:34;50.75;;;22.77;;
55076;SDS011;40971;44.702;11.030;2022-10-18T17:16:00;42.95;;;20.98;;
55076;SDS011;40971;44.702;11.030;2022-10-18T17:18:28;37.58;;;19.98;;
55076;SDS011;40971;44.702;11.030;2022-10-18T17:20:55;39.83;;;19.50;;
55076;SDS011;40971;44.702;11.030;2022-10-18T17:23:21;42.17;;;18.55;;
55076;SDS011;40971;44.702;11.030;2022-10-18T17:25:46;32.60;;;16.67;;
55076;SDS011;40971;44.702;11.030;2022-10-18T17:28:13;41.47;;;16.45;;
55076;SDS011;40971;44.702;11.030;2022-10-18T17:30:41;73.45;;;17.85;;
55076;SDS011;40971;44.702;11.030;2022-10-18T17:33:12;60.22;;;17.25;;